createdAt,value
2022-08-30T00:04:08.278Z,17.56
2022-08-30T00:09:10.420Z,17.37
2022-08-30T00:14:12.418Z,17.33
2022-08-30T00:19:14.387Z,17.32
2022-08-30T00:24:16.241Z,17.17
2022-08-30T00:29:17.981Z,17.22
2022-08-30T00:34:19.766Z,17.27
2022-08-30T00:39:21.550Z,16.91
2022-08-30T00:44:24.233Z,16.57
2022-08-30T00:49:26.421Z,16.74
2022-08-30T00:54:29.299Z,16.82
2022-08-30T00:59:31.499Z,16.82
2022-08-30T01:04:34.005Z,16.77
2022-08-30T01:09:36.778Z,16.74
2022-08-30T01:14:38.501Z,16.71
2022-08-30T01:19:45.766Z,16.55
2022-08-30T01:24:49.035Z,16.49
2022-08-30T01:29:50.966Z,16.34
2022-08-30T01:34:52.673Z,16.25
2022-08-30T01:39:54.602Z,16.32
2022-08-30T01:44:56.306Z,16.32
2022-08-30T01:49:58.352Z,16.04
2022-08-30T01:55:00.270Z,16.06
2022-08-30T02:00:02.183Z,16.19
2022-08-30T02:05:13.522Z,16.15
2022-08-30T02:10:15.608Z,16.14
2022-08-30T02:15:17.655Z,16.11
2022-08-30T02:20:20.588Z,16.01
2022-08-30T02:25:22.354Z,15.94
2022-08-30T02:30:24.279Z,15.83
2022-08-30T02:35:27.074Z,15.91
2022-08-30T02:40:28.893Z,16.01
2022-08-30T02:45:30.631Z,15.96
2022-08-30T02:50:32.374Z,15.94
2022-08-30T02:55:34.376Z,16.09
2022-08-30T03:00:37.135Z,16.16
2022-08-30T03:05:39.765Z,16.17
2022-08-30T03:10:41.658Z,16.24
2022-08-30T03:15:43.355Z,16.21
2022-08-30T03:20:46.208Z,16.00
2022-08-30T03:25:57.301Z,15.89
2022-08-30T03:30:59.043Z,15.90
2022-08-30T03:36:00.806Z,15.80
2022-08-30T03:41:02.672Z,15.57
2022-08-30T03:46:04.840Z,15.51
2022-08-30T03:51:06.782Z,15.67
2022-08-30T03:56:08.485Z,15.76
2022-08-30T04:01:10.401Z,15.74
2022-08-30T04:06:12.252Z,15.81
2022-08-30T04:11:15.697Z,15.52
2022-08-30T04:16:19.982Z,15.63
2022-08-30T04:21:21.789Z,15.71
2022-08-30T04:26:24.019Z,15.57
2022-08-30T04:31:31.440Z,15.48
2022-08-30T04:36:33.417Z,15.54
2022-08-30T04:41:36.858Z,15.53
2022-08-30T04:46:44.423Z,15.83
2022-08-30T04:51:46.667Z,15.72
2022-08-30T04:56:48.464Z,15.53
2022-08-30T05:01:50.308Z,15.36
2022-08-30T05:06:52.885Z,15.47
2022-08-30T05:11:55.004Z,15.57
2022-08-30T05:16:56.887Z,15.37
2022-08-30T05:21:58.797Z,15.31
2022-08-30T05:27:00.665Z,15.32
2022-08-30T05:32:02.581Z,15.37
2022-08-30T05:37:04.393Z,15.61
2022-08-30T05:42:06.258Z,15.73
2022-08-30T05:47:07.987Z,15.97
2022-08-30T05:52:09.726Z,16.33
2022-08-30T05:57:11.983Z,16.49
2022-08-30T06:02:14.216Z,16.66
2022-08-30T06:07:17.210Z,16.98
2022-08-30T06:12:21.931Z,17.18
2022-08-30T06:17:23.617Z,17.34
2022-08-30T06:22:25.347Z,17.52
2022-08-30T06:27:27.149Z,17.53
2022-08-30T06:32:28.991Z,17.79
2022-08-30T06:37:32.913Z,18.03
2022-08-30T06:42:34.663Z,18.26
2022-08-30T06:47:36.432Z,18.51
2022-08-30T06:52:39.105Z,18.63
2022-08-30T06:57:40.882Z,18.77
2022-08-30T07:02:43.162Z,18.96
2022-08-30T07:07:44.972Z,19.11
2022-08-30T07:12:47.754Z,19.26
2022-08-30T07:18:08.311Z,19.44
2022-08-30T07:23:10.538Z,19.76
2022-08-30T07:28:12.909Z,19.93
2022-08-30T07:33:14.733Z,20.16
2022-08-30T07:38:16.627Z,20.43
2022-08-30T07:43:18.769Z,20.55
2022-08-30T07:48:20.680Z,20.66
2022-08-30T07:53:22.571Z,20.89
2022-08-30T07:58:24.300Z,21.10
2022-08-30T08:03:26.838Z,21.12
2022-08-30T08:08:28.609Z,21.25
2022-08-30T08:13:32.772Z,21.31
2022-08-30T08:18:38.405Z,21.47
2022-08-30T08:23:40.102Z,21.61
2022-08-30T08:28:41.909Z,21.81
2022-08-30T08:33:44.159Z,21.95
2022-08-30T08:38:45.966Z,22.12
2022-08-30T08:43:47.746Z,22.37
2022-08-30T08:49:01.413Z,22.62
2022-08-30T08:54:12.622Z,22.93
2022-08-30T08:59:16.101Z,23.02
2022-08-30T09:04:23.867Z,23.14
2022-08-30T09:09:32.884Z,23.29
2022-08-30T09:14:38.998Z,23.50
2022-08-30T09:19:45.348Z,23.68
2022-08-30T09:24:52.423Z,23.81
2022-08-30T09:30:05.039Z,24.08
2022-08-30T09:35:09.061Z,24.26
2022-08-30T09:40:15.337Z,24.29
2022-08-30T09:45:28.358Z,24.43
2022-08-30T09:50:36.408Z,24.65
2022-08-30T09:56:03.015Z,24.88
2022-08-30T10:01:30.546Z,25.01
2022-08-30T10:06:54.277Z,25.02
2022-08-30T10:12:07.438Z,25.03
2022-08-30T10:17:51.739Z,25.19
2022-08-30T10:23:05.019Z,25.27
2022-08-30T10:28:16.127Z,25.71
2022-08-30T10:33:47.055Z,26.06
2022-08-30T10:38:52.401Z,26.13
2022-08-30T10:44:26.827Z,26.25
2022-08-30T10:49:36.262Z,26.08
2022-08-30T10:54:50.391Z,26.33
2022-08-30T11:00:01.464Z,26.48
2022-08-30T11:05:22.685Z,26.72
2022-08-30T11:10:57.017Z,26.72
2022-08-30T11:16:06.356Z,26.81
2022-08-30T11:21:22.482Z,26.87
2022-08-30T11:26:50.692Z,26.87
2022-08-30T11:31:53.418Z,27.02
2022-08-30T11:36:55.202Z,27.15
2022-08-30T11:42:29.495Z,27.28
2022-08-30T11:47:47.661Z,27.46
2022-08-30T11:53:05.523Z,27.62
2022-08-30T11:58:16.439Z,27.35
2022-08-30T12:03:32.260Z,26.78
2022-08-30T12:08:35.076Z,27.03
2022-08-30T12:13:37.970Z,27.57
2022-08-30T12:18:50.530Z,27.52
2022-08-30T12:24:03.712Z,27.29
2022-08-30T12:29:26.962Z,27.40
2022-08-30T12:34:28.691Z,27.54
2022-08-30T12:39:36.703Z,27.69
2022-08-30T12:44:38.615Z,27.62
2022-08-30T12:49:41.550Z,27.40
2022-08-30T12:54:44.518Z,27.43
2022-08-30T12:59:59.274Z,27.32
2022-08-30T13:05:34.331Z,27.11
2022-08-30T13:10:36.367Z,26.91
2022-08-30T13:15:42.533Z,26.83
2022-08-30T13:20:46.552Z,26.82
2022-08-30T13:25:50.222Z,27.19
2022-08-30T13:30:52.771Z,27.78
2022-08-30T13:35:54.530Z,27.96
2022-08-30T13:40:56.394Z,28.18
2022-08-30T13:45:58.457Z,27.90
2022-08-30T13:51:00.677Z,27.71
2022-08-30T13:56:04.165Z,28.11
2022-08-30T14:01:06.088Z,27.93
2022-08-30T14:06:33.537Z,27.91
2022-08-30T14:11:30.627Z,28.31
2022-08-30T14:16:33.899Z,28.23
2022-08-30T14:21:36.255Z,27.76
2022-08-30T14:26:39.836Z,27.46
2022-08-30T14:31:42.460Z,27.31
2022-08-30T14:36:46.002Z,27.21
2022-08-30T14:41:51.969Z,27.13
2022-08-30T14:46:55.102Z,27.09
2022-08-30T14:51:57.117Z,27.07
2022-08-30T14:56:58.845Z,27.03
2022-08-30T15:02:01.641Z,27.13
2022-08-30T15:07:04.265Z,27.50
2022-08-30T15:12:06.224Z,27.52
2022-08-30T15:17:09.421Z,27.25
2022-08-30T15:22:11.237Z,27.08
2022-08-30T15:27:12.948Z,26.90
2022-08-30T15:32:14.883Z,26.77
2022-08-30T15:37:22.300Z,26.82
2022-08-30T15:42:25.951Z,27.16
2022-08-30T15:47:27.890Z,27.31
2022-08-30T15:52:30.483Z,27.14
2022-08-30T15:57:32.455Z,27.08
2022-08-30T16:02:34.239Z,27.09
2022-08-30T16:07:40.559Z,27.01
2022-08-30T16:12:42.694Z,27.01
2022-08-30T16:17:44.793Z,26.96
2022-08-30T16:22:47.110Z,26.89
2022-08-30T16:27:48.890Z,26.73
2022-08-30T16:32:50.702Z,26.49
2022-08-30T16:37:52.386Z,26.34
2022-08-30T16:42:54.185Z,26.24
2022-08-30T16:47:56.020Z,26.32
2022-08-30T16:52:57.735Z,26.25
2022-08-30T16:57:59.443Z,26.16
2022-08-30T17:03:01.979Z,26.01
2022-08-30T17:08:04.750Z,25.88
2022-08-30T17:13:07.427Z,25.72
2022-08-30T17:18:09.005Z,25.51
2022-08-30T17:23:11.186Z,25.26
2022-08-30T17:28:12.892Z,24.88
2022-08-30T17:33:15.138Z,24.51
2022-08-30T17:38:19.804Z,24.09
2022-08-30T17:43:21.930Z,24.14
2022-08-30T17:48:23.736Z,24.06
2022-08-30T17:53:27.872Z,23.97
2022-08-30T17:58:29.895Z,23.95
2022-08-30T18:03:32.191Z,23.92
2022-08-30T18:08:35.393Z,23.81
2022-08-30T18:13:37.704Z,23.67
2022-08-30T18:18:39.458Z,23.61
2022-08-30T18:23:41.471Z,23.46
2022-08-30T18:28:44.210Z,23.34
2022-08-30T18:33:46.626Z,23.24
2022-08-30T18:38:48.298Z,23.00
2022-08-30T18:44:01.801Z,22.84
2022-08-30T18:49:16.360Z,22.68
2022-08-30T18:55:27.219Z,22.42
2022-08-30T19:00:29.655Z,22.41
2022-08-30T19:05:31.504Z,22.36
2022-08-30T19:10:35.851Z,22.37
2022-08-30T19:15:38.074Z,22.34
2022-08-30T19:20:41.494Z,22.28
2022-08-30T19:25:43.633Z,22.24
2022-08-30T19:30:45.321Z,22.20
2022-08-30T19:35:50.956Z,22.10
2022-08-30T19:41:00.686Z,22.08
2022-08-30T19:46:02.599Z,22.08
2022-08-30T19:51:12.311Z,22.04
2022-08-30T19:56:15.641Z,21.98
2022-08-30T20:01:33.249Z,21.99
2022-08-30T20:06:35.840Z,21.94
2022-08-30T20:11:38.858Z,21.87
2022-08-30T20:16:42.132Z,21.81
2022-08-30T20:21:44.079Z,21.69
2022-08-30T20:26:46.023Z,21.55
2022-08-30T20:31:48.943Z,21.41
2022-08-30T20:36:52.019Z,21.37
2022-08-30T20:41:57.214Z,21.37
2022-08-30T20:46:58.950Z,21.42
2022-08-30T20:52:00.601Z,21.34
2022-08-30T20:57:07.083Z,21.38
2022-08-30T21:02:08.870Z,21.21
2022-08-30T21:07:12.563Z,21.24
2022-08-30T21:12:14.290Z,21.30
2022-08-30T21:17:16.049Z,21.21
2022-08-30T21:22:17.850Z,21.19
2022-08-30T21:27:21.298Z,21.22
2022-08-30T21:32:23.105Z,21.19
2022-08-30T21:37:25.253Z,21.16
2022-08-30T21:42:27.631Z,20.92
2022-08-30T21:47:29.302Z,20.92
2022-08-30T21:52:33.418Z,21.00
2022-08-30T21:57:35.147Z,21.00
2022-08-30T22:02:37.068Z,20.89
2022-08-30T22:07:38.775Z,20.91
2022-08-30T22:12:41.545Z,20.84
2022-08-30T22:17:43.570Z,20.81
2022-08-30T22:22:45.601Z,20.78
2022-08-30T22:27:47.622Z,20.38
2022-08-30T22:32:49.467Z,19.81
2022-08-30T22:37:53.723Z,19.71
2022-08-30T22:42:55.540Z,19.65
2022-08-30T22:47:57.995Z,19.65
2022-08-30T22:52:59.779Z,19.66
2022-08-30T22:58:01.865Z,19.78
2022-08-30T23:03:03.545Z,19.72
2022-08-30T23:08:06.617Z,19.92
2022-08-30T23:13:08.309Z,20.09
2022-08-30T23:18:10.066Z,20.27
2022-08-30T23:23:30.777Z,20.40
2022-08-30T23:28:51.109Z,20.54
2022-08-30T23:34:11.469Z,20.59
2022-08-30T23:39:31.783Z,20.49
2022-08-30T23:44:52.221Z,20.53
2022-08-30T23:50:13.133Z,20.59
2022-08-30T23:55:33.621Z,20.59
